createdAt,value
2023-05-10T00:00:45.348Z,1.40
2023-05-10T00:03:19.149Z,1.30
2023-05-10T00:05:42.150Z,2.10
2023-05-10T00:08:16.725Z,1.50
2023-05-10T00:10:43.186Z,2.70
2023-05-10T00:13:18.135Z,2.60
2023-05-10T00:15:52.695Z,1.40
2023-05-10T00:18:16.342Z,2.40
2023-05-10T00:20:44.859Z,1.90
2023-05-10T00:23:20.326Z,1.30
2023-05-10T00:25:53.822Z,2.00
2023-05-10T00:28:11.693Z,3.00
2023-05-10T00:30:38.104Z,1.90
2023-05-10T00:33:00.227Z,1.70
2023-05-10T00:35:27.164Z,1.40
2023-05-10T00:37:50.640Z,2.50
2023-05-10T00:40:16.333Z,1.90
2023-05-10T00:42:49.847Z,1.60
2023-05-10T00:45:25.658Z,1.50
2023-05-10T00:48:00.401Z,1.30
2023-05-10T00:50:35.388Z,2.80
2023-05-10T00:53:09.617Z,2.10
2023-05-10T00:57:56.848Z,1.30
2023-05-10T01:00:31.774Z,2.20
2023-05-10T01:03:06.923Z,2.10
2023-05-10T01:05:35.093Z,2.90
2023-05-10T01:08:10.731Z,2.90
2023-05-10T01:10:54.819Z,2.20
2023-05-10T01:13:38.209Z,2.00
2023-05-10T01:16:12.470Z,3.90
2023-05-10T01:18:49.042Z,2.10
2023-05-10T01:21:31.221Z,2.20
2023-05-10T01:24:36.511Z,2.70
2023-05-10T01:27:22.048Z,3.10
2023-05-10T01:30:35.528Z,3.30
2023-05-10T01:33:05.819Z,1.50
2023-05-10T01:35:40.321Z,3.00
2023-05-10T01:38:11.978Z,2.90
2023-05-10T01:40:52.821Z,2.00
2023-05-10T01:43:35.218Z,2.60
2023-05-10T01:46:14.164Z,1.40
2023-05-10T01:48:58.311Z,1.30
2023-05-10T01:51:35.817Z,0.70
2023-05-10T01:54:16.296Z,0.50
2023-05-10T01:56:52.696Z,0.60
2023-05-10T01:59:23.099Z,1.20
2023-05-10T02:02:01.198Z,2.10
2023-05-10T02:04:36.296Z,0.60
2023-05-10T02:07:11.636Z,0.60
2023-05-10T02:09:36.567Z,1.30
2023-05-10T02:12:13.336Z,0.80
2023-05-10T02:14:42.831Z,1.40
2023-05-10T02:17:20.821Z,1.30
2023-05-10T02:19:55.870Z,1.30
2023-05-10T02:22:30.572Z,0.80
2023-05-10T02:25:06.447Z,2.70
2023-05-10T02:27:41.797Z,1.10
2023-05-10T02:30:06.244Z,3.10
2023-05-10T02:32:36.484Z,1.60
2023-05-10T02:35:12.734Z,0.80
2023-05-10T02:37:42.828Z,1.00
2023-05-10T02:40:20.452Z,1.50
2023-05-10T02:42:56.852Z,1.80
2023-05-10T02:45:33.520Z,1.20
2023-05-10T02:48:08.202Z,1.40
2023-05-10T02:50:48.654Z,1.20
2023-05-10T02:53:34.858Z,1.60
2023-05-10T02:56:18.150Z,3.40
2023-05-10T02:58:53.354Z,1.10
2023-05-10T03:01:16.756Z,2.60
2023-05-10T03:03:50.495Z,1.90
2023-05-10T03:06:26.110Z,1.70
2023-05-10T03:09:01.656Z,3.70
2023-05-10T03:11:48.888Z,3.90
2023-05-10T03:14:34.776Z,2.60
2023-05-10T03:17:11.325Z,4.80
2023-05-10T03:19:44.501Z,2.70
2023-05-10T03:22:17.472Z,1.70
2023-05-10T03:24:53.512Z,1.50
2023-05-10T03:27:28.928Z,1.20
2023-05-10T03:29:57.299Z,1.30
2023-05-10T03:32:35.082Z,2.40
2023-05-10T03:35:16.393Z,1.20
2023-05-10T03:37:37.142Z,1.00
2023-05-10T03:39:57.234Z,1.30
2023-05-10T03:42:23.932Z,1.20
2023-05-10T03:44:44.991Z,1.30
2023-05-10T03:47:02.817Z,1.20
2023-05-10T03:49:27.704Z,1.20
2023-05-10T03:51:45.578Z,1.10
2023-05-10T03:54:20.162Z,0.80
2023-05-10T03:56:50.013Z,1.60
2023-05-10T03:59:19.251Z,1.10
2023-05-10T04:01:44.802Z,0.80
2023-05-10T04:04:17.004Z,1.10
2023-05-10T04:06:42.406Z,1.80
2023-05-10T04:09:02.044Z,1.70
2023-05-10T04:11:26.921Z,1.30
2023-05-10T04:14:00.371Z,1.50
2023-05-10T04:16:35.779Z,1.80
2023-05-10T04:19:03.969Z,1.60
2023-05-10T04:21:23.316Z,1.70
2023-05-10T04:23:56.769Z,1.50
2023-05-10T04:26:13.545Z,1.90
2023-05-10T04:28:48.293Z,1.70
2023-05-10T04:31:23.914Z,1.70
2023-05-10T04:33:41.374Z,1.30
2023-05-10T04:36:07.939Z,1.30
2023-05-10T04:38:34.298Z,1.20
2023-05-10T04:41:00.192Z,2.10
2023-05-10T04:43:34.745Z,2.70
2023-05-10T04:45:52.444Z,2.40
2023-05-10T04:48:09.749Z,2.50
2023-05-10T04:50:45.341Z,1.30
2023-05-10T04:54:05.179Z,1.40
2023-05-10T04:56:04.685Z,1.00
2023-05-10T04:58:43.732Z,1.00
2023-05-10T05:01:13.023Z,1.30
2023-05-10T05:03:48.228Z,1.00
2023-05-10T05:06:07.970Z,1.50
2023-05-10T05:08:36.477Z,1.00
2023-05-10T05:11:07.702Z,1.00
2023-05-10T05:13:43.277Z,1.40
2023-05-10T05:16:08.100Z,1.20
2023-05-10T05:18:36.569Z,2.30
2023-05-10T05:21:07.819Z,1.30
2023-05-10T05:23:42.629Z,1.50
2023-05-10T05:28:56.762Z,2.10
2023-05-10T05:31:30.522Z,1.80
2023-05-10T05:34:03.549Z,2.20
2023-05-10T05:36:20.395Z,1.50
2023-05-10T05:38:53.473Z,1.50
2023-05-10T05:41:19.001Z,1.70
2023-05-10T05:43:53.328Z,1.30
2023-05-10T05:46:27.559Z,0.80
2023-05-10T05:48:49.884Z,1.40
2023-05-10T05:51:10.176Z,1.50
2023-05-10T05:53:34.490Z,1.00
2023-05-10T05:56:02.962Z,1.00
2023-05-10T05:58:27.855Z,1.50
2023-05-10T06:00:45.609Z,1.00
2023-05-10T06:03:11.314Z,1.00
2023-05-10T06:05:44.486Z,1.10
2023-05-10T06:08:18.730Z,1.30
2023-05-10T06:10:53.138Z,1.50
2023-05-10T06:13:14.093Z,0.80
2023-05-10T06:15:32.376Z,1.20
2023-05-10T06:20:19.670Z,1.00
2023-05-10T06:22:43.811Z,1.10
2023-05-10T06:25:07.425Z,1.00
2023-05-10T06:27:27.159Z,1.00
2023-05-10T06:29:48.253Z,1.10
2023-05-10T06:32:21.639Z,1.00
2023-05-10T06:34:45.598Z,1.90
2023-05-10T06:37:19.843Z,0.70
2023-05-10T06:39:36.341Z,0.80
2023-05-10T06:42:18.925Z,0.90
2023-05-10T06:44:39.104Z,0.90
2023-05-10T06:47:00.261Z,0.90
2023-05-10T06:49:32.058Z,0.90
2023-05-10T06:51:49.781Z,0.80
2023-05-10T06:56:45.529Z,1.10
2023-05-10T06:59:12.707Z,0.70
2023-05-10T07:01:49.015Z,0.90
2023-05-10T07:04:22.697Z,0.80
2023-05-10T07:06:44.498Z,0.80
2023-05-10T07:09:18.239Z,0.90
2023-05-10T07:11:40.616Z,1.00
2023-05-10T07:14:14.104Z,1.40
2023-05-10T07:16:49.300Z,0.90
2023-05-10T07:19:12.563Z,1.20
2023-05-10T07:21:46.156Z,1.00
2023-05-10T07:24:13.966Z,1.10
2023-05-10T07:26:48.687Z,1.20
2023-05-10T07:29:22.870Z,1.00
2023-05-10T07:31:58.720Z,0.90
2023-05-10T07:34:34.002Z,1.30
2023-05-10T07:36:57.329Z,0.90
2023-05-10T07:39:34.558Z,1.10
2023-05-10T07:42:08.440Z,1.30
2023-05-10T07:44:31.157Z,0.70
2023-05-10T07:46:53.345Z,1.10
2023-05-10T07:49:27.564Z,1.10
2023-05-10T07:52:02.219Z,1.00
2023-05-10T07:54:32.250Z,1.30
2023-05-10T07:57:06.201Z,0.80
2023-05-10T07:59:39.607Z,1.20
2023-05-10T08:02:13.511Z,0.90
2023-05-10T08:04:56.046Z,0.90
2023-05-10T08:07:31.440Z,1.10
2023-05-10T08:10:05.345Z,1.00
2023-05-10T08:12:40.899Z,0.90
2023-05-10T08:15:16.803Z,1.00
2023-05-10T08:17:54.804Z,0.90
2023-05-10T08:20:29.493Z,1.30
2023-05-10T08:23:02.885Z,1.00
2023-05-10T08:25:26.444Z,1.40
2023-05-10T08:28:00.606Z,1.20
2023-05-10T08:30:34.720Z,1.10
2023-05-10T08:33:08.354Z,0.90
2023-05-10T08:35:42.066Z,1.10
2023-05-10T08:38:05.970Z,0.90
2023-05-10T08:40:32.169Z,1.10
2023-05-10T08:43:10.173Z,0.70
2023-05-10T08:45:47.469Z,2.30
2023-05-10T08:48:13.372Z,0.90
2023-05-10T08:50:49.513Z,1.00
2023-05-10T08:53:24.801Z,1.00
2023-05-10T08:55:51.448Z,0.90
2023-05-10T08:58:14.467Z,0.90
2023-05-10T09:03:01.431Z,1.10
2023-05-10T09:05:29.530Z,1.40
2023-05-10T09:08:03.523Z,0.80
2023-05-10T09:10:58.808Z,0.80
2023-05-10T09:13:27.721Z,1.30
2023-05-10T09:16:13.598Z,1.00
2023-05-10T09:18:57.256Z,1.00
2023-05-10T09:21:26.838Z,1.00
2023-05-10T09:24:00.298Z,0.90
2023-05-10T09:26:34.356Z,1.10
2023-05-10T09:29:01.498Z,1.00
2023-05-10T09:31:53.184Z,0.80
2023-05-10T09:34:20.056Z,0.60
2023-05-10T09:37:02.861Z,0.80
2023-05-10T09:39:44.890Z,0.70
2023-05-10T09:42:12.733Z,0.90
2023-05-10T09:44:48.499Z,0.80
2023-05-10T09:47:24.082Z,0.80
2023-05-10T09:50:05.017Z,0.80
2023-05-10T09:52:49.845Z,0.80
2023-05-10T09:55:25.227Z,1.00
2023-05-10T09:58:06.698Z,0.70
2023-05-10T10:00:47.366Z,0.60
2023-05-10T10:03:24.890Z,0.80
2023-05-10T10:06:00.697Z,0.60
2023-05-10T10:08:34.799Z,0.80
2023-05-10T10:11:09.221Z,0.60
2023-05-10T10:13:44.873Z,0.80
2023-05-10T10:16:18.428Z,0.80
2023-05-10T10:18:52.767Z,1.20
2023-05-10T10:21:49.862Z,1.00
2023-05-10T10:24:12.269Z,1.10
2023-05-10T10:26:46.855Z,0.80
2023-05-10T10:29:30.548Z,0.80
2023-05-10T10:32:15.323Z,0.90
2023-05-10T10:34:48.678Z,0.80
2023-05-10T10:37:24.462Z,1.20
2023-05-10T10:39:59.705Z,1.00
2023-05-10T10:42:53.915Z,0.80
2023-05-10T10:45:29.570Z,0.80
2023-05-10T10:48:28.144Z,0.70
2023-05-10T10:51:06.932Z,0.70
2023-05-10T10:53:33.222Z,0.90
2023-05-10T10:56:17.677Z,2.00
2023-05-10T10:58:46.044Z,0.70
2023-05-10T11:01:24.226Z,1.90
2023-05-10T11:04:24.554Z,0.70
2023-05-10T11:07:18.211Z,0.70
2023-05-10T11:09:48.258Z,0.70
2023-05-10T11:12:22.707Z,0.80
2023-05-10T11:15:04.549Z,0.80
2023-05-10T11:17:39.375Z,0.90
2023-05-10T11:20:25.076Z,0.80
2023-05-10T11:22:59.651Z,0.90
2023-05-10T11:25:36.016Z,0.70
2023-05-10T11:28:13.035Z,0.70
2023-05-10T11:30:49.382Z,0.70
2023-05-10T11:33:27.250Z,0.60
2023-05-10T11:36:00.871Z,0.50
2023-05-10T11:38:37.128Z,0.60
2023-05-10T11:41:09.406Z,0.70
2023-05-10T11:43:45.628Z,1.10
2023-05-10T11:46:20.027Z,0.60
2023-05-10T11:49:02.960Z,1.10
2023-05-10T11:51:38.697Z,1.30
2023-05-10T11:54:15.212Z,0.60
2023-05-10T11:56:48.891Z,0.80
2023-05-10T11:59:24.115Z,0.80
2023-05-10T12:01:58.413Z,0.80
2023-05-10T12:04:34.280Z,1.00
2023-05-10T12:07:08.249Z,0.60
2023-05-10T12:09:43.940Z,0.80
2023-05-10T12:12:22.928Z,0.70
2023-05-10T12:14:58.941Z,0.90
2023-05-10T12:17:38.038Z,0.80
2023-05-10T12:20:25.997Z,1.20
2023-05-10T12:23:01.468Z,1.20
2023-05-10T12:25:37.889Z,0.90
2023-05-10T12:28:14.368Z,0.80
2023-05-10T12:30:50.058Z,0.80
2023-05-10T12:33:16.899Z,0.70
2023-05-10T12:35:54.826Z,0.70
2023-05-10T12:38:45.233Z,1.00
2023-05-10T12:41:19.685Z,0.70
2023-05-10T12:43:54.522Z,0.80
2023-05-10T12:46:30.126Z,0.80
2023-05-10T12:49:07.712Z,1.20
2023-05-10T12:51:37.431Z,1.20
2023-05-10T12:54:03.344Z,0.80
2023-05-10T12:56:31.972Z,1.40
2023-05-10T12:59:06.206Z,0.90
2023-05-10T13:01:40.627Z,1.10
2023-05-10T13:04:15.398Z,0.70
2023-05-10T13:06:48.645Z,1.60
2023-05-10T13:09:22.613Z,0.80
2023-05-10T13:11:56.952Z,1.00
2023-05-10T13:14:24.378Z,1.10
2023-05-10T13:16:56.534Z,0.80
2023-05-10T13:19:20.573Z,1.30
2023-05-10T13:24:41.335Z,0.80
2023-05-10T13:27:15.310Z,1.30
2023-05-10T13:29:49.556Z,0.90
2023-05-10T13:32:23.806Z,0.90
2023-05-10T13:34:57.807Z,0.80
2023-05-10T13:37:31.566Z,0.70
2023-05-10T13:40:06.166Z,0.80
2023-05-10T13:42:40.389Z,0.80
2023-05-10T13:45:15.881Z,1.00
2023-05-10T13:47:50.830Z,0.90
2023-05-10T13:50:27.805Z,0.80
2023-05-10T13:52:54.913Z,1.10
2023-05-10T13:55:29.282Z,0.90
2023-05-10T13:58:05.410Z,0.90
2023-05-10T14:00:39.829Z,1.00
2023-05-10T14:03:14.528Z,0.90
2023-05-10T14:05:49.523Z,0.80
2023-05-10T14:08:24.712Z,0.80
2023-05-10T14:11:00.501Z,0.80
2023-05-10T14:13:33.736Z,0.90
2023-05-10T14:15:58.274Z,0.70
2023-05-10T14:18:31.920Z,0.70
2023-05-10T14:21:06.129Z,0.90
2023-05-10T14:23:33.833Z,0.80
2023-05-10T14:26:07.221Z,0.60
2023-05-10T14:28:40.532Z,0.80
2023-05-10T14:31:03.301Z,1.00
2023-05-10T14:33:37.701Z,0.90
2023-05-10T14:36:02.010Z,1.00
2023-05-10T14:38:37.657Z,0.90
2023-05-10T14:41:11.996Z,1.00
2023-05-10T14:43:46.021Z,0.90
2023-05-10T14:46:12.855Z,0.80
2023-05-10T14:48:35.631Z,1.00
2023-05-10T14:51:10.658Z,1.10
2023-05-10T14:53:44.901Z,1.00
2023-05-10T14:56:09.170Z,0.90
2023-05-10T14:58:34.609Z,0.80
2023-05-10T15:01:09.253Z,1.00
2023-05-10T15:03:43.882Z,2.70
2023-05-10T15:06:18.964Z,9.30
2023-05-10T15:08:52.735Z,4.70
2023-05-10T15:11:26.814Z,2.00
2023-05-10T15:14:01.381Z,3.50
2023-05-10T15:16:36.477Z,7.20
2023-05-10T15:19:10.570Z,4.80
2023-05-10T15:21:46.630Z,4.50
2023-05-10T15:24:20.487Z,5.00
2023-05-10T15:26:43.534Z,5.70
2023-05-10T15:29:21.942Z,9.90
2023-05-10T15:31:56.455Z,9.30
2023-05-10T15:34:32.255Z,5.40
2023-05-10T15:37:00.177Z,6.30
2023-05-10T15:39:34.041Z,4.40
2023-05-10T15:42:07.327Z,2.30
2023-05-10T15:44:41.069Z,4.70
2023-05-10T15:47:03.720Z,4.40
2023-05-10T15:49:38.638Z,5.30
2023-05-10T15:52:13.639Z,6.60
2023-05-10T15:54:47.171Z,7.60
2023-05-10T15:57:20.973Z,7.00
2023-05-10T15:59:53.998Z,6.00
2023-05-10T16:02:28.461Z,6.10
2023-05-10T16:05:00.909Z,5.80
2023-05-10T16:07:34.664Z,3.10
2023-05-10T16:10:09.279Z,3.20
2023-05-10T16:12:45.850Z,3.80
2023-05-10T16:15:20.024Z,4.00
2023-05-10T16:17:47.113Z,4.30
2023-05-10T16:20:20.819Z,4.80
2023-05-10T16:22:56.231Z,2.70
2023-05-10T16:25:30.697Z,2.80
2023-05-10T16:28:05.031Z,2.10
2023-05-10T16:30:38.904Z,4.00
2023-05-10T16:33:14.159Z,3.00
2023-05-10T16:35:49.339Z,5.20
2023-05-10T16:38:22.731Z,3.10
2023-05-10T16:40:46.073Z,1.70
2023-05-10T16:43:20.767Z,3.30
2023-05-10T16:45:54.657Z,3.50
2023-05-10T16:48:28.449Z,4.10
2023-05-10T16:51:02.574Z,3.50
2023-05-10T16:53:36.855Z,3.10
2023-05-10T16:56:11.937Z,3.10
2023-05-10T16:58:46.068Z,3.60
2023-05-10T17:01:13.694Z,3.10
2023-05-10T17:03:48.395Z,2.80
2023-05-10T17:06:22.102Z,3.20
2023-05-10T17:08:56.813Z,3.20
2023-05-10T17:11:31.088Z,2.70
2023-05-10T17:14:05.412Z,2.00
2023-05-10T17:16:40.103Z,2.60
2023-05-10T17:19:06.029Z,3.10
2023-05-10T17:21:33.581Z,3.50
2023-05-10T17:24:07.010Z,2.60
2023-05-10T17:26:41.603Z,2.90
2023-05-10T17:29:04.784Z,2.70
2023-05-10T17:31:38.962Z,2.30
2023-05-10T17:34:14.835Z,2.90
2023-05-10T17:36:49.078Z,2.50
2023-05-10T17:39:11.737Z,2.40
2023-05-10T17:41:39.143Z,2.60
2023-05-10T17:44:05.952Z,2.70
2023-05-10T17:46:40.211Z,1.80
2023-05-10T17:49:14.715Z,2.10
2023-05-10T17:51:50.682Z,3.30
2023-05-10T17:54:13.139Z,2.70
2023-05-10T17:56:48.669Z,3.50
2023-05-10T17:59:22.767Z,2.20
2023-05-10T18:01:56.590Z,1.40
2023-05-10T18:04:31.072Z,2.60
2023-05-10T18:07:04.901Z,2.20
2023-05-10T18:09:40.011Z,3.60
2023-05-10T18:12:14.855Z,2.70
2023-05-10T18:14:51.557Z,2.50
2023-05-10T18:17:30.117Z,2.60
2023-05-10T18:20:04.397Z,2.00
2023-05-10T18:22:39.201Z,1.90
2023-05-10T18:25:03.292Z,1.60
2023-05-10T18:27:37.825Z,1.50
2023-05-10T18:30:13.601Z,1.80
2023-05-10T18:32:47.846Z,1.50
2023-05-10T18:35:21.916Z,2.10
2023-05-10T18:37:49.717Z,1.30
2023-05-10T18:40:18.158Z,1.60
2023-05-10T18:42:52.740Z,1.70
2023-05-10T18:45:19.587Z,1.60
2023-05-10T18:47:54.338Z,1.50
2023-05-10T18:50:18.177Z,1.30
2023-05-10T18:52:53.702Z,1.50
2023-05-10T18:55:28.986Z,1.10
2023-05-10T18:58:03.045Z,2.20
2023-05-10T19:00:36.980Z,1.40
2023-05-10T19:03:00.589Z,1.40
2023-05-10T19:05:34.391Z,1.80
2023-05-10T19:08:08.837Z,2.40
2023-05-10T19:10:36.810Z,1.70
2023-05-10T19:13:11.181Z,2.60
2023-05-10T19:15:37.755Z,1.90
2023-05-10T19:18:16.945Z,1.60
2023-05-10T19:20:50.617Z,1.60
2023-05-10T19:23:23.667Z,2.20
2023-05-10T19:25:59.241Z,2.30
2023-05-10T19:28:35.960Z,2.30
2023-05-10T19:31:10.497Z,1.60
2023-05-10T19:33:43.636Z,1.90
2023-05-10T19:36:17.964Z,1.50
2023-05-10T19:38:45.023Z,1.80
2023-05-10T19:41:18.712Z,1.90
2023-05-10T19:43:54.766Z,1.70
2023-05-10T19:46:20.010Z,2.00
2023-05-10T19:48:57.938Z,2.30
2023-05-10T19:51:25.697Z,1.90
2023-05-10T19:53:59.584Z,1.90
2023-05-10T19:56:33.928Z,2.40
2023-05-10T19:59:09.029Z,3.00
2023-05-10T20:01:42.817Z,1.80
2023-05-10T20:04:17.051Z,1.90
2023-05-10T20:06:50.088Z,2.70
2023-05-10T20:09:25.533Z,1.80
2023-05-10T20:11:59.767Z,2.50
2023-05-10T20:14:34.518Z,3.10
2023-05-10T20:17:08.129Z,2.20
2023-05-10T20:19:43.558Z,2.10
2023-05-10T20:22:18.361Z,2.10
2023-05-10T20:24:41.327Z,2.20
2023-05-10T20:27:15.119Z,2.20
2023-05-10T20:29:50.654Z,2.10
2023-05-10T20:32:26.248Z,1.80
2023-05-10T20:35:00.326Z,2.00
2023-05-10T20:37:34.235Z,2.60
2023-05-10T20:40:09.209Z,1.60
2023-05-10T20:42:42.903Z,1.80
2023-05-10T20:47:36.922Z,1.40
2023-05-10T20:50:00.325Z,2.50
2023-05-10T20:52:34.786Z,2.20
2023-05-10T20:55:10.714Z,2.30
2023-05-10T20:57:45.232Z,2.10
2023-05-10T21:00:21.107Z,2.40
2023-05-10T21:02:57.973Z,2.10
2023-05-10T21:05:32.202Z,1.90
2023-05-10T21:08:05.977Z,2.20
2023-05-10T21:10:40.801Z,2.20
2023-05-10T21:13:04.138Z,2.60
2023-05-10T21:15:38.235Z,2.40
2023-05-10T21:18:12.896Z,2.50
2023-05-10T21:20:48.298Z,2.80
2023-05-10T21:23:21.331Z,2.40
2023-05-10T21:25:57.000Z,2.40
2023-05-10T21:28:30.949Z,2.20
2023-05-10T21:30:54.092Z,2.00
2023-05-10T21:33:29.049Z,2.40
2023-05-10T21:36:06.085Z,1.80
2023-05-10T21:38:33.902Z,2.90
2023-05-10T21:41:12.011Z,2.10
2023-05-10T21:43:47.801Z,1.60
2023-05-10T21:46:16.575Z,1.70
2023-05-10T21:48:40.159Z,2.20
2023-05-10T21:51:13.961Z,2.60
2023-05-10T21:53:47.362Z,2.30
2023-05-10T21:56:23.060Z,2.30
2023-05-10T21:58:56.804Z,2.10
2023-05-10T22:01:32.717Z,2.70
2023-05-10T22:03:59.668Z,1.90
2023-05-10T22:06:35.029Z,3.10
2023-05-10T22:09:10.149Z,2.00
2023-05-10T22:11:44.301Z,2.50
2023-05-10T22:14:20.021Z,2.40
2023-05-10T22:16:54.364Z,1.70
2023-05-10T22:19:19.423Z,2.70
2023-05-10T22:21:53.054Z,1.90
2023-05-10T22:24:28.566Z,2.20
2023-05-10T22:27:04.379Z,1.80
2023-05-10T22:29:38.394Z,3.10
2023-05-10T22:32:12.753Z,2.50
2023-05-10T22:34:36.957Z,3.00
2023-05-10T22:37:11.378Z,2.20
2023-05-10T22:39:44.565Z,1.60
2023-05-10T22:42:18.416Z,2.90
2023-05-10T22:44:52.767Z,2.30
2023-05-10T22:47:27.142Z,3.60
2023-05-10T22:50:00.411Z,2.50
2023-05-10T22:52:26.908Z,2.40
2023-05-10T22:55:03.214Z,2.10
2023-05-10T22:57:37.720Z,2.60
2023-05-10T23:00:13.967Z,2.40
2023-05-10T23:05:35.061Z,2.10
2023-05-10T23:08:02.143Z,2.80
2023-05-10T23:10:38.907Z,2.30
2023-05-10T23:13:13.394Z,2.30
2023-05-10T23:15:47.241Z,3.00
2023-05-10T23:18:21.679Z,2.80
2023-05-10T23:20:49.332Z,2.00
2023-05-10T23:23:24.398Z,1.60
2023-05-10T23:25:58.130Z,2.30
2023-05-10T23:28:32.603Z,3.00
2023-05-10T23:31:07.426Z,2.30
2023-05-10T23:33:28.771Z,2.30
2023-05-10T23:35:52.307Z,1.80
2023-05-10T23:38:28.299Z,2.40
2023-05-10T23:41:03.944Z,2.00
2023-05-10T23:43:38.344Z,2.10
2023-05-10T23:46:14.619Z,1.50
2023-05-10T23:48:49.512Z,2.40
2023-05-10T23:51:23.550Z,1.80
2023-05-10T23:54:30.809Z,2.80
2023-05-10T23:57:05.254Z,4.20
2023-05-10T23:59:29.629Z,2.30
